createdAt,value
2023-01-11T00:01:23.028Z,3.67
2023-01-11T00:03:52.050Z,4.07
2023-01-11T00:06:21.752Z,3.85
2023-01-11T00:08:50.721Z,4.50
2023-01-11T00:11:20.375Z,4.05
2023-01-11T00:13:49.514Z,4.60
2023-01-11T00:16:18.891Z,4.70
2023-01-11T00:18:51.991Z,3.67
2023-01-11T00:21:21.687Z,4.05
2023-01-11T00:23:56.141Z,3.62
2023-01-11T00:26:26.539Z,3.70
2023-01-11T00:28:55.322Z,4.15
2023-01-11T00:31:22.786Z,4.15
2023-01-11T00:33:52.708Z,3.00
2023-01-11T00:36:22.391Z,3.87
2023-01-11T00:38:58.391Z,4.47
2023-01-11T00:41:50.067Z,4.80
2023-01-11T00:44:42.633Z,4.25
2023-01-11T00:47:34.497Z,4.22
2023-01-11T00:50:03.771Z,4.72
2023-01-11T00:52:31.296Z,4.37
2023-01-11T00:55:05.055Z,3.95
2023-01-11T00:57:36.504Z,5.37
2023-01-11T01:00:10.912Z,5.18
2023-01-11T01:02:45.163Z,5.40
2023-01-11T01:05:18.004Z,4.70
2023-01-11T01:07:49.273Z,4.00
2023-01-11T01:10:23.537Z,4.45
2023-01-11T01:13:14.886Z,4.68
2023-01-11T01:15:43.142Z,4.18
2023-01-11T01:18:12.372Z,4.35
2023-01-11T01:20:47.092Z,4.03
2023-01-11T01:23:19.769Z,4.47
2023-01-11T01:25:52.193Z,4.30
2023-01-11T01:28:24.553Z,3.50
2023-01-11T01:30:54.962Z,4.70
2023-01-11T01:33:23.386Z,4.22
2023-01-11T01:35:51.785Z,4.62
2023-01-11T01:38:21.040Z,4.35
2023-01-11T01:40:57.203Z,4.93
2023-01-11T01:43:58.692Z,4.50
2023-01-11T01:46:34.398Z,4.15
2023-01-11T01:49:16.690Z,5.00
2023-01-11T01:51:57.207Z,4.45
2023-01-11T01:54:32.445Z,4.40
2023-01-11T01:57:05.396Z,4.80
2023-01-11T01:59:37.118Z,5.55
2023-01-11T02:02:05.611Z,3.65
2023-01-11T02:04:44.117Z,5.28
2023-01-11T02:07:40.743Z,4.50
2023-01-11T02:13:00.926Z,4.50
2023-01-11T02:15:31.959Z,4.55
2023-01-11T02:17:59.896Z,4.47
2023-01-11T02:20:56.117Z,4.65
2023-01-11T02:23:53.615Z,5.68
2023-01-11T02:26:48.347Z,4.45
2023-01-11T02:29:16.190Z,4.30
2023-01-11T02:32:39.227Z,4.93
2023-01-11T02:35:20.443Z,4.20
2023-01-11T02:38:09.441Z,5.35
2023-01-11T02:40:59.029Z,3.83
2023-01-11T02:44:08.131Z,5.97
2023-01-11T02:46:54.527Z,4.95
2023-01-11T02:49:38.144Z,4.85
2023-01-11T02:52:20.144Z,4.10
2023-01-11T02:54:54.860Z,4.43
2023-01-11T02:57:25.562Z,4.43
2023-01-11T02:59:58.001Z,4.57
2023-01-11T03:02:25.717Z,3.78
2023-01-11T03:04:53.138Z,5.18
2023-01-11T03:08:02.823Z,4.50
2023-01-11T03:11:01.251Z,5.72
2023-01-11T03:13:55.455Z,5.10
2023-01-11T03:16:34.624Z,5.15
2023-01-11T03:19:34.968Z,5.12
2023-01-11T03:22:24.646Z,5.43
2023-01-11T03:25:06.298Z,5.00
2023-01-11T03:28:23.884Z,5.78
2023-01-11T03:31:30.875Z,4.10
2023-01-11T03:34:28.568Z,3.08
2023-01-11T03:37:07.103Z,4.12
2023-01-11T03:39:54.422Z,4.30
2023-01-11T03:42:26.328Z,5.35
2023-01-11T03:44:58.980Z,5.00
2023-01-11T03:47:30.601Z,5.00
2023-01-11T03:50:09.572Z,4.60
2023-01-11T03:52:43.488Z,5.55
2023-01-11T03:55:16.605Z,5.85
2023-01-11T03:57:51.640Z,4.93
2023-01-11T04:00:25.382Z,5.32
2023-01-11T04:02:56.154Z,4.62
2023-01-11T04:05:23.424Z,5.22
2023-01-11T04:07:54.381Z,5.00
2023-01-11T04:10:24.424Z,6.07
2023-01-11T04:12:53.573Z,6.15
2023-01-11T04:15:21.464Z,6.60
2023-01-11T04:17:52.055Z,4.90
2023-01-11T04:20:20.639Z,5.10
2023-01-11T04:22:47.871Z,5.43
2023-01-11T04:25:16.774Z,5.57
2023-01-11T04:27:48.500Z,5.18
2023-01-11T04:30:16.254Z,4.62
2023-01-11T04:32:47.654Z,5.37
2023-01-11T04:35:15.305Z,4.47
2023-01-11T04:37:43.023Z,6.12
2023-01-11T04:40:16.814Z,4.80
2023-01-11T04:42:51.218Z,4.60
2023-01-11T04:45:19.080Z,5.10
2023-01-11T04:47:47.742Z,5.68
2023-01-11T04:50:18.901Z,5.20
2023-01-11T04:52:46.384Z,5.45
2023-01-11T04:55:16.648Z,5.78
2023-01-11T04:57:44.932Z,5.03
2023-01-11T05:00:15.073Z,5.20
2023-01-11T05:02:43.807Z,4.75
2023-01-11T05:05:12.222Z,4.50
2023-01-11T05:07:42.203Z,5.37
2023-01-11T05:10:13.805Z,4.37
2023-01-11T05:12:41.495Z,4.90
2023-01-11T05:15:09.889Z,4.90
2023-01-11T05:17:37.093Z,5.18
2023-01-11T05:20:06.591Z,4.20
2023-01-11T05:22:33.876Z,4.97
2023-01-11T05:25:03.472Z,4.32
2023-01-11T05:27:33.582Z,4.60
2023-01-11T05:30:01.800Z,4.75
2023-01-11T05:32:29.429Z,3.95
2023-01-11T05:34:56.938Z,4.62
2023-01-11T05:37:24.000Z,4.72
2023-01-11T05:39:51.048Z,5.75
2023-01-11T05:42:18.649Z,5.85
2023-01-11T05:45:06.015Z,5.10
2023-01-11T05:47:34.679Z,5.07
2023-01-11T05:50:03.093Z,5.55
2023-01-11T05:52:30.217Z,6.10
2023-01-11T05:54:58.693Z,6.35
2023-01-11T05:57:25.877Z,5.97
2023-01-11T05:59:53.353Z,6.95
2023-01-11T06:02:21.201Z,5.68
2023-01-11T06:04:55.462Z,6.55
2023-01-11T06:07:25.361Z,7.20
2023-01-11T06:09:55.083Z,6.75
2023-01-11T06:12:26.851Z,6.18
2023-01-11T06:14:54.346Z,5.25
2023-01-11T06:17:24.396Z,5.70
2023-01-11T06:19:52.444Z,5.12
2023-01-11T06:22:27.270Z,5.10
2023-01-11T06:24:54.772Z,5.90
2023-01-11T06:27:22.534Z,5.30
2023-01-11T06:29:49.836Z,5.82
2023-01-11T06:32:17.066Z,4.65
2023-01-11T06:34:44.868Z,5.35
2023-01-11T06:37:12.251Z,5.45
2023-01-11T06:39:41.001Z,7.00
2023-01-11T06:42:12.809Z,4.22
2023-01-11T06:44:42.372Z,5.57
2023-01-11T06:47:13.998Z,5.30
2023-01-11T06:49:46.149Z,4.55
2023-01-11T06:52:26.958Z,4.53
2023-01-11T06:54:54.631Z,4.57
2023-01-11T06:57:28.011Z,4.55
2023-01-11T06:59:56.998Z,4.50
2023-01-11T07:02:30.043Z,3.97
2023-01-11T07:05:01.550Z,5.05
2023-01-11T07:07:33.022Z,4.28
2023-01-11T07:10:01.675Z,3.37
2023-01-11T07:12:35.132Z,4.68
2023-01-11T07:15:10.181Z,3.22
2023-01-11T07:17:39.728Z,4.18
2023-01-11T07:20:10.217Z,4.20
2023-01-11T07:22:43.511Z,4.65
2023-01-11T07:25:12.154Z,4.70
2023-01-11T07:27:42.560Z,4.43
2023-01-11T07:30:12.092Z,3.87
2023-01-11T07:32:41.388Z,3.10
2023-01-11T07:35:12.093Z,3.30
2023-01-11T07:37:41.575Z,4.28
2023-01-11T07:40:11.711Z,4.93
2023-01-11T07:42:59.280Z,4.45
2023-01-11T07:45:37.305Z,4.60
2023-01-11T07:48:12.593Z,4.07
2023-01-11T07:50:45.961Z,4.57
2023-01-11T07:53:30.105Z,4.72
2023-01-11T07:56:07.808Z,4.95
2023-01-11T07:58:40.029Z,4.85
2023-01-11T08:01:18.992Z,4.55
2023-01-11T08:04:03.139Z,3.60
2023-01-11T08:06:40.899Z,4.40
2023-01-11T08:09:34.794Z,4.68
2023-01-11T08:12:40.629Z,4.80
2023-01-11T08:15:23.673Z,4.75
2023-01-11T08:18:07.827Z,5.43
2023-01-11T08:20:44.494Z,4.60
2023-01-11T08:25:53.085Z,4.68
2023-01-11T08:31:11.600Z,4.28
2023-01-11T08:33:46.158Z,4.03
2023-01-11T08:36:29.381Z,4.50
2023-01-11T08:39:20.167Z,4.57
2023-01-11T08:41:55.276Z,4.25
2023-01-11T08:44:34.030Z,5.15
2023-01-11T08:47:13.030Z,4.43
2023-01-11T08:49:54.039Z,4.75
2023-01-11T08:52:30.276Z,4.65
2023-01-11T08:55:15.849Z,4.68
2023-01-11T08:57:54.249Z,3.55
2023-01-11T09:00:31.713Z,3.58
2023-01-11T09:03:14.284Z,3.72
2023-01-11T09:06:03.424Z,3.50
2023-01-11T09:08:43.697Z,4.60
2023-01-11T09:11:54.800Z,5.10
2023-01-11T09:14:39.947Z,3.33
2023-01-11T09:17:19.226Z,3.10
2023-01-11T09:20:01.589Z,3.85
2023-01-11T09:22:41.620Z,3.78
2023-01-11T09:25:17.193Z,3.35
2023-01-11T09:28:00.514Z,4.72
2023-01-11T09:30:42.852Z,4.28
2023-01-11T09:33:28.867Z,4.68
2023-01-11T09:36:18.555Z,4.75
2023-01-11T09:38:59.433Z,4.43
2023-01-11T09:42:11.308Z,3.83
2023-01-11T09:44:59.842Z,3.42
2023-01-11T09:47:58.613Z,2.95
2023-01-11T09:50:34.099Z,3.72
2023-01-11T09:53:43.723Z,3.37
2023-01-11T09:56:23.759Z,4.18
2023-01-11T09:59:24.280Z,3.72
2023-01-11T10:02:54.789Z,4.22
2023-01-11T10:06:18.758Z,4.28
2023-01-11T10:18:38.923Z,3.75
2023-01-11T10:19:51.620Z,3.55
2023-01-11T10:22:37.035Z,4.30
2023-01-11T10:25:27.779Z,3.78
2023-01-11T10:28:37.074Z,4.30
2023-01-11T10:31:53.520Z,4.07
2023-01-11T10:35:00.523Z,3.70
2023-01-11T10:41:26.068Z,4.60
2023-01-11T10:44:43.680Z,4.43
2023-01-11T10:47:26.315Z,4.80
2023-01-11T10:50:39.521Z,4.90
2023-01-11T10:53:30.182Z,5.30
2023-01-11T10:56:24.286Z,4.93
2023-01-11T10:59:27.777Z,5.10
2023-01-11T11:02:28.373Z,4.82
2023-01-11T11:05:28.766Z,3.92
2023-01-11T11:09:10.974Z,4.95
2023-01-11T11:15:03.670Z,4.68
2023-01-11T11:17:42.625Z,3.97
2023-01-11T11:20:28.332Z,4.20
2023-01-11T11:23:08.503Z,4.65
2023-01-11T11:25:46.081Z,3.90
2023-01-11T11:28:32.511Z,4.82
2023-01-11T11:31:25.210Z,4.03
2023-01-11T11:34:00.439Z,5.05
2023-01-11T11:36:50.087Z,4.65
2023-01-11T11:39:34.912Z,4.00
2023-01-11T11:42:19.118Z,4.35
2023-01-11T11:45:20.140Z,3.90
2023-01-11T11:48:03.646Z,4.00
2023-01-11T11:50:45.424Z,3.80
2023-01-11T11:53:52.809Z,5.00
2023-01-11T11:56:40.163Z,4.10
2023-01-11T11:59:31.623Z,3.65
2023-01-11T12:05:56.148Z,4.10
2023-01-11T12:08:41.015Z,3.90
2023-01-11T12:11:37.665Z,4.00
2023-01-11T12:14:35.376Z,3.00
2023-01-11T12:17:28.743Z,3.10
2023-01-11T12:20:04.998Z,3.20
2023-01-11T12:22:38.327Z,3.55
2023-01-11T12:25:35.658Z,3.30
2023-01-11T12:28:31.453Z,3.00
2023-01-11T12:31:34.159Z,3.92
2023-01-11T12:34:27.723Z,3.28
2023-01-11T12:37:25.928Z,3.42
2023-01-11T12:40:33.701Z,3.62
2023-01-11T12:43:21.925Z,3.65
2023-01-11T12:46:24.929Z,3.70
2023-01-11T12:49:41.885Z,3.58
2023-01-11T12:52:44.136Z,3.90
2023-01-11T12:55:57.109Z,3.50
2023-01-11T12:59:12.254Z,3.33
2023-01-11T13:02:10.480Z,6.30
2023-01-11T13:05:10.022Z,6.53
2023-01-11T13:08:07.291Z,4.60
2023-01-11T13:11:18.893Z,4.00
2023-01-11T13:14:07.675Z,4.28
2023-01-11T13:17:03.728Z,4.78
2023-01-11T13:20:12.512Z,4.03
2023-01-11T13:23:05.055Z,3.20
2023-01-11T13:28:48.434Z,4.95
2023-01-11T13:31:33.965Z,4.47
2023-01-11T13:34:36.610Z,4.47
2023-01-11T13:37:25.867Z,4.47
2023-01-11T13:40:32.423Z,5.05
2023-01-11T13:46:41.514Z,4.85
2023-01-11T13:49:41.938Z,4.25
2023-01-11T13:52:33.523Z,4.72
2023-01-11T13:55:35.179Z,4.93
2023-01-11T14:02:02.339Z,3.90
2023-01-11T14:05:05.582Z,5.97
2023-01-11T14:08:17.741Z,4.55
2023-01-11T14:14:55.209Z,5.10
2023-01-11T14:18:03.703Z,5.55
2023-01-11T14:21:37.292Z,5.20
2023-01-11T14:24:11.596Z,5.30
2023-01-11T14:27:27.818Z,5.60
2023-01-11T14:30:15.559Z,4.80
2023-01-11T14:33:17.213Z,5.82
2023-01-11T14:36:20.817Z,5.55
2023-01-11T14:39:18.673Z,6.90
2023-01-11T14:42:35.069Z,6.22
2023-01-11T14:45:31.255Z,6.05
2023-01-11T14:48:35.469Z,6.25
2023-01-11T14:51:30.645Z,7.07
2023-01-11T14:54:20.954Z,7.00
2023-01-11T14:57:03.167Z,6.25
2023-01-11T14:59:41.796Z,6.85
2023-01-11T15:02:30.064Z,7.25
2023-01-11T15:05:08.641Z,7.03
2023-01-11T15:07:43.429Z,7.78
2023-01-11T15:10:39.391Z,7.35
2023-01-11T15:13:21.667Z,7.05
2023-01-11T15:16:36.927Z,6.80
2023-01-11T15:19:16.683Z,7.25
2023-01-11T15:21:51.077Z,9.35
2023-01-11T15:24:34.343Z,9.80
2023-01-11T15:27:06.328Z,9.25
2023-01-11T15:29:56.235Z,7.25
2023-01-11T15:32:39.163Z,8.32
2023-01-11T15:35:37.424Z,9.18
2023-01-11T15:38:24.284Z,10.60
2023-01-11T15:41:20.362Z,12.10
2023-01-11T15:44:46.505Z,12.52
2023-01-11T15:47:59.119Z,10.15
2023-01-11T15:51:05.884Z,8.48
2023-01-11T15:54:15.451Z,8.18
2023-01-11T15:57:17.162Z,9.40
2023-01-11T16:00:28.801Z,9.32
2023-01-11T16:03:23.552Z,8.38
2023-01-11T16:06:30.923Z,7.15
2023-01-11T16:09:24.686Z,9.50
2023-01-11T16:16:15.904Z,8.80
2023-01-11T16:19:06.178Z,10.88
2023-01-11T16:21:59.154Z,10.45
2023-01-11T16:24:43.806Z,11.57
2023-01-11T16:27:36.438Z,11.00
2023-01-11T16:30:28.397Z,12.18
2023-01-11T16:33:26.466Z,12.00
2023-01-11T16:36:26.680Z,12.68
2023-01-11T16:39:17.501Z,10.07
2023-01-11T16:45:35.579Z,10.07
2023-01-11T16:48:27.239Z,10.55
2023-01-11T16:51:19.307Z,9.93
2023-01-11T16:54:04.803Z,9.57
2023-01-11T16:56:51.354Z,12.30
2023-01-11T16:59:34.988Z,13.52
2023-01-11T17:02:39.530Z,13.25
2023-01-11T17:05:27.368Z,17.92
2023-01-11T17:08:02.539Z,16.23
2023-01-11T17:10:34.857Z,18.60
2023-01-11T17:13:55.377Z,19.73
2023-01-11T17:16:41.216Z,16.00
2023-01-11T17:19:29.552Z,16.73
2023-01-11T17:25:45.097Z,18.98
2023-01-11T17:31:57.025Z,15.30
2023-01-11T17:38:24.325Z,17.95
2023-01-11T17:45:01.528Z,26.30
2023-01-11T17:47:43.236Z,25.77
2023-01-11T17:50:34.551Z,23.67
2023-01-11T17:56:42.611Z,17.95
2023-01-11T17:59:31.287Z,18.35
2023-01-11T18:05:38.001Z,17.60
2023-01-11T18:08:22.347Z,17.48
2023-01-11T18:11:15.952Z,16.52
2023-01-11T18:17:41.091Z,14.30
2023-01-11T18:23:46.980Z,17.42
2023-01-11T18:26:33.730Z,17.92
2023-01-11T18:29:12.824Z,16.52
2023-01-11T18:31:59.242Z,16.48
2023-01-11T18:34:35.707Z,14.80
2023-01-11T18:37:12.859Z,18.67
2023-01-11T18:39:50.201Z,18.75
2023-01-11T18:42:41.767Z,20.42
2023-01-11T18:48:48.226Z,26.42
2023-01-11T18:51:42.704Z,29.35
2023-01-11T18:54:23.053Z,32.30
2023-01-11T18:57:01.266Z,36.70
2023-01-11T19:02:42.201Z,26.52
2023-01-11T19:05:21.022Z,22.02
2023-01-11T19:08:06.943Z,25.73
2023-01-11T19:10:44.919Z,26.70
2023-01-11T19:13:22.919Z,24.25
2023-01-11T19:16:00.868Z,24.37
2023-01-11T19:18:38.246Z,25.30
2023-01-11T19:21:18.839Z,23.17
2023-01-11T19:24:07.619Z,23.90
2023-01-11T19:26:46.540Z,26.77
2023-01-11T19:29:34.585Z,26.85
2023-01-11T19:32:12.990Z,23.73
2023-01-11T19:34:47.882Z,21.77
2023-01-11T19:37:22.483Z,17.58
2023-01-11T19:40:01.742Z,19.33
2023-01-11T19:42:46.214Z,17.08
2023-01-11T19:48:58.919Z,13.77
2023-01-11T19:51:35.027Z,14.20
2023-01-11T19:54:10.461Z,12.80
2023-01-11T19:56:44.444Z,12.55
2023-01-11T19:59:23.401Z,11.88
2023-01-11T20:02:09.261Z,13.38
2023-01-11T20:04:52.295Z,13.43
2023-01-11T20:07:23.821Z,13.73
2023-01-11T20:10:00.435Z,13.07
2023-01-11T20:12:42.017Z,14.98
2023-01-11T20:15:33.714Z,16.23
2023-01-11T20:18:05.793Z,16.92
2023-01-11T20:24:03.335Z,13.27
2023-01-11T20:26:36.671Z,14.85
2023-01-11T20:29:12.997Z,15.35
2023-01-11T20:31:53.684Z,13.45
2023-01-11T20:34:34.044Z,15.13
2023-01-11T20:37:16.691Z,14.85
2023-01-11T20:39:52.905Z,12.00
2023-01-11T20:42:31.447Z,14.35
2023-01-11T20:48:40.793Z,12.80
2023-01-11T20:51:18.628Z,14.25
2023-01-11T20:57:12.999Z,14.82
2023-01-11T21:00:00.158Z,14.85
2023-01-11T21:02:30.828Z,17.40
2023-01-11T21:05:11.085Z,17.37
2023-01-11T21:07:53.130Z,14.23
2023-01-11T21:10:31.459Z,15.52
2023-01-11T21:15:50.680Z,19.27
2023-01-11T21:18:29.717Z,17.95
2023-01-11T21:24:30.237Z,15.50
2023-01-11T21:27:13.679Z,14.40
2023-01-11T21:33:22.897Z,13.62
2023-01-11T21:36:03.115Z,13.43
2023-01-11T21:38:38.004Z,15.02
2023-01-11T21:44:44.408Z,13.60
2023-01-11T21:47:31.374Z,16.98
2023-01-11T21:53:42.420Z,16.40
2023-01-11T21:56:30.050Z,15.35
2023-01-11T21:59:05.817Z,13.62
2023-01-11T22:05:12.987Z,12.50
2023-01-11T22:07:53.379Z,11.35
2023-01-11T22:10:33.615Z,10.73
2023-01-11T22:13:09.393Z,10.27
2023-01-11T22:15:50.527Z,10.27
2023-01-11T22:18:30.290Z,10.98
2023-01-11T22:24:40.648Z,13.10
2023-01-11T22:27:15.768Z,13.95
2023-01-11T22:29:53.424Z,14.15
2023-01-11T22:32:29.683Z,14.90
2023-01-11T22:35:09.797Z,14.70
2023-01-11T22:37:50.826Z,14.55
2023-01-11T22:46:44.648Z,12.25
2023-01-11T22:49:22.854Z,12.65
2023-01-11T22:51:58.265Z,12.18
2023-01-11T22:54:34.537Z,9.77
2023-01-11T22:57:18.029Z,12.60
2023-01-11T22:59:53.228Z,11.10
2023-01-11T23:02:35.821Z,10.70
2023-01-11T23:05:17.664Z,10.45
2023-01-11T23:07:54.565Z,10.65
2023-01-11T23:10:33.520Z,9.70
2023-01-11T23:13:37.655Z,9.60
2023-01-11T23:16:12.258Z,7.68
2023-01-11T23:19:07.055Z,7.03
2023-01-11T23:25:12.613Z,5.53
2023-01-11T23:31:25.868Z,5.72
2023-01-11T23:34:14.796Z,5.87
2023-01-11T23:36:56.249Z,5.62
2023-01-11T23:39:35.978Z,8.60
2023-01-11T23:45:49.065Z,8.05
2023-01-11T23:48:30.452Z,5.82
2023-01-11T23:51:10.729Z,6.53
2023-01-11T23:53:51.397Z,6.50
2023-01-11T23:56:30.478Z,6.35
2023-01-11T23:59:07.179Z,6.10
